Terminal Aerodrome Forecast
Issued by NWS

Home | Current Version | Previous Version | Text Only | Print | Product List | Glossary On
Versions: 1 2 3 4 5 6 7 8 9 10 11 12 13 14 15 16 17 18 19 20 21 22 23 24 25 26 27 28 29 30 31 32
208
FTUS43 KBIS 240236 AAC
TAFDIK
TAF AMD
KDIK 240236Z 2403/2424 04012KT P6SM SCT015 BKN030
     FM240500 03008KT P6SM FEW035
      TEMPO 2410/2413 4SM BR
     FM241900 36005KT P6SM BKN015
     FM242300 10004KT P6SM BKN110=

USA.gov is the U.S. government's official web portal to all federal, state and local government web resources and services.